sensor_id;sensor_type;location;lat;lon;timestamp;temperature;humidity
21580;DHT22;10951;59.656;9.666;2022-07-05T00:01:34;11.70;80.60
21580;DHT22;10951;59.656;9.666;2022-07-05T00:04:01;11.80;80.30
21580;DHT22;10951;59.656;9.666;2022-07-05T00:06:28;11.80;80.20
21580;DHT22;10951;59.656;9.666;2022-07-05T00:08:55;11.80;80.20
21580;DHT22;10951;59.656;9.666;2022-07-05T00:11:22;11.90;80.60
21580;DHT22;10951;59.656;9.666;2022-07-05T00:13:49;11.80;81.00
21580;DHT22;10951;59.656;9.666;2022-07-05T00:16:16;11.80;80.50
21580;DHT22;10951;59.656;9.666;2022-07-05T00:18:43;11.70;80.90
21580;DHT22;10951;59.656;9.666;2022-07-05T00:21:10;11.80;81.00
21580;DHT22;10951;59.656;9.666;2022-07-05T00:23:37;11.70;81.20
21580;DHT22;10951;59.656;9.666;2022-07-05T00:26:04;11.70;81.60
21580;DHT22;10951;59.656;9.666;2022-07-05T00:28:30;11.60;81.60
21580;DHT22;10951;59.656;9.666;2022-07-05T00:30:58;11.60;81.70
21580;DHT22;10951;59.656;9.666;2022-07-05T00:33:24;11.50;82.40
21580;DHT22;10951;59.656;9.666;2022-07-05T00:35:51;11.50;82.50
21580;DHT22;10951;59.656;9.666;2022-07-05T00:38:18;11.40;83.00
21580;DHT22;10951;59.656;9.666;2022-07-05T00:40:45;11.30;83.30
21580;DHT22;10951;59.656;9.666;2022-07-05T00:43:12;11.20;83.50
21580;DHT22;10951;59.656;9.666;2022-07-05T00:45:39;11.20;84.00
21580;DHT22;10951;59.656;9.666;2022-07-05T00:48:06;11.10;84.10
21580;DHT22;10951;59.656;9.666;2022-07-05T00:50:33;11.00;85.00
21580;DHT22;10951;59.656;9.666;2022-07-05T00:53:00;10.90;85.80
21580;DHT22;10951;59.656;9.666;2022-07-05T00:55:28;10.80;86.20
21580;DHT22;10951;59.656;9.666;2022-07-05T00:57:55;10.60;86.40
21580;DHT22;10951;59.656;9.666;2022-07-05T01:00:22;10.60;86.90
21580;DHT22;10951;59.656;9.666;2022-07-05T01:02:49;10.50;87.40
21580;DHT22;10951;59.656;9.666;2022-07-05T01:05:17;10.50;86.90
21580;DHT22;10951;59.656;9.666;2022-07-05T01:07:44;10.40;87.70
21580;DHT22;10951;59.656;9.666;2022-07-05T01:10:11;10.30;87.90
21580;DHT22;10951;59.656;9.666;2022-07-05T01:12:39;10.30;89.00
21580;DHT22;10951;59.656;9.666;2022-07-05T01:15:09;10.30;89.30
21580;DHT22;10951;59.656;9.666;2022-07-05T01:17:36;10.40;89.60
21580;DHT22;10951;59.656;9.666;2022-07-05T01:20:05;10.30;89.90
21580;DHT22;10951;59.656;9.666;2022-07-05T01:22:50;10.30;89.60
21580;DHT22;10951;59.656;9.666;2022-07-05T01:25:24;10.30;90.00
21580;DHT22;10951;59.656;9.666;2022-07-05T01:27:52;10.20;89.80
21580;DHT22;10951;59.656;9.666;2022-07-05T01:30:21;10.20;90.00
21580;DHT22;10951;59.656;9.666;2022-07-05T01:32:48;10.20;89.50
21580;DHT22;10951;59.656;9.666;2022-07-05T01:35:16;10.10;90.20
21580;DHT22;10951;59.656;9.666;2022-07-05T01:37:49;10.10;90.40
21580;DHT22;10951;59.656;9.666;2022-07-05T01:40:17;10.00;90.40
21580;DHT22;10951;59.656;9.666;2022-07-05T01:42:44;10.00;90.50
21580;DHT22;10951;59.656;9.666;2022-07-05T01:45:11;10.10;90.60
21580;DHT22;10951;59.656;9.666;2022-07-05T01:47:42;10.10;90.30
21580;DHT22;10951;59.656;9.666;2022-07-05T01:50:13;10.20;90.30
21580;DHT22;10951;59.656;9.666;2022-07-05T01:52:46;10.20;90.40
21580;DHT22;10951;59.656;9.666;2022-07-05T01:55:14;10.30;90.50
21580;DHT22;10951;59.656;9.666;2022-07-05T01:57:41;10.30;90.10
21580;DHT22;10951;59.656;9.666;2022-07-05T02:00:09;10.40;90.10
21580;DHT22;10951;59.656;9.666;2022-07-05T02:02:42;10.40;89.80
21580;DHT22;10951;59.656;9.666;2022-07-05T02:05:10;10.40;89.80
21580;DHT22;10951;59.656;9.666;2022-07-05T02:07:47;10.40;90.00
21580;DHT22;10951;59.656;9.666;2022-07-05T02:10:14;10.30;90.10
21580;DHT22;10951;59.656;9.666;2022-07-05T02:12:42;10.20;90.10
21580;DHT22;10951;59.656;9.666;2022-07-05T02:15:10;10.10;90.20
21580;DHT22;10951;59.656;9.666;2022-07-05T02:17:37;10.10;90.60
21580;DHT22;10951;59.656;9.666;2022-07-05T02:20:05;10.20;90.60
21580;DHT22;10951;59.656;9.666;2022-07-05T02:22:33;10.10;90.40
21580;DHT22;10951;59.656;9.666;2022-07-05T02:25:01;10.10;90.40
21580;DHT22;10951;59.656;9.666;2022-07-05T02:27:28;10.10;90.40
21580;DHT22;10951;59.656;9.666;2022-07-05T02:29:55;10.10;90.80
21580;DHT22;10951;59.656;9.666;2022-07-05T02:32:31;10.10;91.10
21580;DHT22;10951;59.656;9.666;2022-07-05T02:35:00;10.10;91.40
21580;DHT22;10951;59.656;9.666;2022-07-05T02:37:28;10.10;91.20
21580;DHT22;10951;59.656;9.666;2022-07-05T02:39:56;10.00;91.50
21580;DHT22;10951;59.656;9.666;2022-07-05T02:42:23;9.90;91.60
21580;DHT22;10951;59.656;9.666;2022-07-05T02:44:50;9.90;91.80
21580;DHT22;10951;59.656;9.666;2022-07-05T02:47:19;9.90;92.20
21580;DHT22;10951;59.656;9.666;2022-07-05T02:49:46;9.90;92.00
21580;DHT22;10951;59.656;9.666;2022-07-05T02:52:13;10.00;91.90
21580;DHT22;10951;59.656;9.666;2022-07-05T02:54:40;10.00;92.00
21580;DHT22;10951;59.656;9.666;2022-07-05T02:57:09;10.10;92.40
21580;DHT22;10951;59.656;9.666;2022-07-05T02:59:36;10.10;93.00
21580;DHT22;10951;59.656;9.666;2022-07-05T03:02:03;10.20;92.90
21580;DHT22;10951;59.656;9.666;2022-07-05T03:04:31;10.20;92.80
21580;DHT22;10951;59.656;9.666;2022-07-05T03:06:58;10.20;92.50
21580;DHT22;10951;59.656;9.666;2022-07-05T03:09:28;10.20;92.30
21580;DHT22;10951;59.656;9.666;2022-07-05T03:11:58;10.20;92.30
21580;DHT22;10951;59.656;9.666;2022-07-05T03:14:25;10.20;92.90
21580;DHT22;10951;59.656;9.666;2022-07-05T03:16:52;10.30;92.40
21580;DHT22;10951;59.656;9.666;2022-07-05T03:19:21;10.40;92.20
21580;DHT22;10951;59.656;9.666;2022-07-05T03:21:48;10.50;92.10
21580;DHT22;10951;59.656;9.666;2022-07-05T03:24:15;10.50;92.40
21580;DHT22;10951;59.656;9.666;2022-07-05T03:26:42;10.60;92.40
21580;DHT22;10951;59.656;9.666;2022-07-05T03:29:10;10.60;92.10
21580;DHT22;10951;59.656;9.666;2022-07-05T03:31:38;10.60;91.90
21580;DHT22;10951;59.656;9.666;2022-07-05T03:34:06;10.60;91.80
21580;DHT22;10951;59.656;9.666;2022-07-05T03:36:34;10.70;92.20
21580;DHT22;10951;59.656;9.666;2022-07-05T03:39:05;10.70;92.10
21580;DHT22;10951;59.656;9.666;2022-07-05T03:41:33;10.70;91.80
21580;DHT22;10951;59.656;9.666;2022-07-05T03:44:02;10.70;92.10
21580;DHT22;10951;59.656;9.666;2022-07-05T03:46:29;10.60;92.50
21580;DHT22;10951;59.656;9.666;2022-07-05T03:48:56;10.80;92.40
21580;DHT22;10951;59.656;9.666;2022-07-05T03:51:24;10.80;91.80
21580;DHT22;10951;59.656;9.666;2022-07-05T03:53:52;10.90;91.80
21580;DHT22;10951;59.656;9.666;2022-07-05T03:56:20;10.90;91.40
21580;DHT22;10951;59.656;9.666;2022-07-05T03:58:52;10.90;91.30
21580;DHT22;10951;59.656;9.666;2022-07-05T04:01:18;10.90;91.20
21580;DHT22;10951;59.656;9.666;2022-07-05T04:03:46;11.00;91.80
21580;DHT22;10951;59.656;9.666;2022-07-05T04:06:15;11.20;91.40
21580;DHT22;10951;59.656;9.666;2022-07-05T04:08:42;11.20;91.20
21580;DHT22;10951;59.656;9.666;2022-07-05T04:11:08;11.10;91.30
21580;DHT22;10951;59.656;9.666;2022-07-05T04:13:39;11.20;91.40
21580;DHT22;10951;59.656;9.666;2022-07-05T04:16:07;11.30;91.10
21580;DHT22;10951;59.656;9.666;2022-07-05T04:18:36;11.30;91.00
21580;DHT22;10951;59.656;9.666;2022-07-05T04:21:05;11.30;91.20
21580;DHT22;10951;59.656;9.666;2022-07-05T04:23:32;11.30;91.30
21580;DHT22;10951;59.656;9.666;2022-07-05T04:26:01;11.40;91.00
21580;DHT22;10951;59.656;9.666;2022-07-05T04:28:35;11.40;90.80
21580;DHT22;10951;59.656;9.666;2022-07-05T04:31:06;11.50;91.20
21580;DHT22;10951;59.656;9.666;2022-07-05T04:33:38;11.50;90.60
21580;DHT22;10951;59.656;9.666;2022-07-05T04:36:05;11.60;91.80
21580;DHT22;10951;59.656;9.666;2022-07-05T04:38:33;11.70;91.50
21580;DHT22;10951;59.656;9.666;2022-07-05T04:41:02;11.80;91.40
21580;DHT22;10951;59.656;9.666;2022-07-05T04:43:30;11.90;91.40
21580;DHT22;10951;59.656;9.666;2022-07-05T04:45:58;11.90;91.30
21580;DHT22;10951;59.656;9.666;2022-07-05T04:48:26;12.10;90.70
21580;DHT22;10951;59.656;9.666;2022-07-05T04:50:53;12.20;90.30
21580;DHT22;10951;59.656;9.666;2022-07-05T04:53:22;12.30;90.40
21580;DHT22;10951;59.656;9.666;2022-07-05T04:55:49;12.40;90.20
21580;DHT22;10951;59.656;9.666;2022-07-05T04:58:16;12.50;89.10
21580;DHT22;10951;59.656;9.666;2022-07-05T05:00:43;12.60;89.40
21580;DHT22;10951;59.656;9.666;2022-07-05T05:03:10;12.70;89.60
21580;DHT22;10951;59.656;9.666;2022-07-05T05:05:37;12.90;89.30
21580;DHT22;10951;59.656;9.666;2022-07-05T05:08:04;13.00;88.40
21580;DHT22;10951;59.656;9.666;2022-07-05T05:10:31;13.10;87.70
21580;DHT22;10951;59.656;9.666;2022-07-05T05:12:58;13.20;87.80
21580;DHT22;10951;59.656;9.666;2022-07-05T05:15:25;13.30;86.70
21580;DHT22;10951;59.656;9.666;2022-07-05T05:17:52;13.40;87.00
21580;DHT22;10951;59.656;9.666;2022-07-05T05:20:19;13.50;87.40
21580;DHT22;10951;59.656;9.666;2022-07-05T05:22:46;13.60;86.70
21580;DHT22;10951;59.656;9.666;2022-07-05T05:25:14;13.60;86.60
21580;DHT22;10951;59.656;9.666;2022-07-05T05:27:47;13.70;86.60
21580;DHT22;10951;59.656;9.666;2022-07-05T05:30:17;13.70;86.20
21580;DHT22;10951;59.656;9.666;2022-07-05T05:32:44;13.80;85.20
21580;DHT22;10951;59.656;9.666;2022-07-05T05:35:11;13.90;84.40
21580;DHT22;10951;59.656;9.666;2022-07-05T05:37:51;14.20;83.90
21580;DHT22;10951;59.656;9.666;2022-07-05T05:40:18;14.70;82.50
21580;DHT22;10951;59.656;9.666;2022-07-05T05:42:46;15.30;80.30
21580;DHT22;10951;59.656;9.666;2022-07-05T05:45:14;15.90;79.10
21580;DHT22;10951;59.656;9.666;2022-07-05T05:47:52;16.40;74.90
21580;DHT22;10951;59.656;9.666;2022-07-05T05:50:29;16.70;73.00
21580;DHT22;10951;59.656;9.666;2022-07-05T05:52:57;17.10;71.50
21580;DHT22;10951;59.656;9.666;2022-07-05T05:55:25;17.30;69.70
21580;DHT22;10951;59.656;9.666;2022-07-05T05:57:53;17.50;67.80
21580;DHT22;10951;59.656;9.666;2022-07-05T06:00:21;17.70;66.70
21580;DHT22;10951;59.656;9.666;2022-07-05T06:02:48;18.00;66.00
21580;DHT22;10951;59.656;9.666;2022-07-05T06:05:16;18.20;64.50
21580;DHT22;10951;59.656;9.666;2022-07-05T06:07:48;18.40;63.60
21580;DHT22;10951;59.656;9.666;2022-07-05T06:10:26;18.70;62.90
21580;DHT22;10951;59.656;9.666;2022-07-05T06:12:56;19.00;62.10
21580;DHT22;10951;59.656;9.666;2022-07-05T06:15:23;19.10;60.20
21580;DHT22;10951;59.656;9.666;2022-07-05T06:17:50;19.30;61.00
21580;DHT22;10951;59.656;9.666;2022-07-05T06:20:19;19.40;59.90
21580;DHT22;10951;59.656;9.666;2022-07-05T06:22:47;19.60;58.50
21580;DHT22;10951;59.656;9.666;2022-07-05T06:25:14;19.60;57.20
21580;DHT22;10951;59.656;9.666;2022-07-05T06:27:56;19.70;56.40
21580;DHT22;10951;59.656;9.666;2022-07-05T06:30:25;19.80;57.60
21580;DHT22;10951;59.656;9.666;2022-07-05T06:32:53;20.00;56.60
21580;DHT22;10951;59.656;9.666;2022-07-05T06:35:21;20.10;55.50
21580;DHT22;10951;59.656;9.666;2022-07-05T06:37:53;20.20;53.30
21580;DHT22;10951;59.656;9.666;2022-07-05T06:40:24;20.20;55.10
21580;DHT22;10951;59.656;9.666;2022-07-05T06:42:53;20.30;55.90
21580;DHT22;10951;59.656;9.666;2022-07-05T06:45:24;20.50;55.50
21580;DHT22;10951;59.656;9.666;2022-07-05T06:47:59;20.60;54.70
21580;DHT22;10951;59.656;9.666;2022-07-05T06:50:28;20.40;54.70
21580;DHT22;10951;59.656;9.666;2022-07-05T06:52:56;20.20;54.40
21580;DHT22;10951;59.656;9.666;2022-07-05T06:55:23;19.90;54.50
21580;DHT22;10951;59.656;9.666;2022-07-05T06:58:02;19.60;54.40
21580;DHT22;10951;59.656;9.666;2022-07-05T07:00:39;19.20;54.80
21580;DHT22;10951;59.656;9.666;2022-07-05T07:03:27;18.90;55.40
21580;DHT22;10951;59.656;9.666;2022-07-05T07:06:14;18.60;55.90
21580;DHT22;10951;59.656;9.666;2022-07-05T07:08:41;18.40;56.00
21580;DHT22;10951;59.656;9.666;2022-07-05T07:11:27;18.40;56.50
21580;DHT22;10951;59.656;9.666;2022-07-05T07:13:54;18.70;56.30
21580;DHT22;10951;59.656;9.666;2022-07-05T07:16:21;19.10;55.30
21580;DHT22;10951;59.656;9.666;2022-07-05T07:18:48;19.40;55.10
21580;DHT22;10951;59.656;9.666;2022-07-05T07:21:35;19.80;54.90
21580;DHT22;10951;59.656;9.666;2022-07-05T07:24:02;20.20;54.30
21580;DHT22;10951;59.656;9.666;2022-07-05T07:26:29;20.50;52.60
21580;DHT22;10951;59.656;9.666;2022-07-05T07:28:56;20.80;52.50
21580;DHT22;10951;59.656;9.666;2022-07-05T07:31:22;20.90;51.80
21580;DHT22;10951;59.656;9.666;2022-07-05T07:33:49;20.90;51.10
21580;DHT22;10951;59.656;9.666;2022-07-05T07:36:16;20.80;50.90
21580;DHT22;10951;59.656;9.666;2022-07-05T07:38:43;20.50;51.90
21580;DHT22;10951;59.656;9.666;2022-07-05T07:41:12;20.10;51.90
21580;DHT22;10951;59.656;9.666;2022-07-05T07:43:39;19.80;51.30
21580;DHT22;10951;59.656;9.666;2022-07-05T07:46:06;19.70;52.50
21580;DHT22;10951;59.656;9.666;2022-07-05T07:48:33;19.90;53.10
21580;DHT22;10951;59.656;9.666;2022-07-05T07:50:59;20.10;52.50
21580;DHT22;10951;59.656;9.666;2022-07-05T07:53:26;20.40;52.20
21580;DHT22;10951;59.656;9.666;2022-07-05T07:55:53;20.60;50.60
21580;DHT22;10951;59.656;9.666;2022-07-05T07:58:20;20.60;50.80
21580;DHT22;10951;59.656;9.666;2022-07-05T08:00:47;20.60;50.20
21580;DHT22;10951;59.656;9.666;2022-07-05T08:03:14;20.60;49.70
21580;DHT22;10951;59.656;9.666;2022-07-05T08:05:41;20.70;50.20
21580;DHT22;10951;59.656;9.666;2022-07-05T08:08:08;20.70;49.60
21580;DHT22;10951;59.656;9.666;2022-07-05T08:10:35;20.20;49.50
21580;DHT22;10951;59.656;9.666;2022-07-05T08:13:02;19.80;50.30
21580;DHT22;10951;59.656;9.666;2022-07-05T08:15:29;19.50;50.40
21580;DHT22;10951;59.656;9.666;2022-07-05T08:17:56;19.30;49.90
21580;DHT22;10951;59.656;9.666;2022-07-05T08:20:41;19.20;49.80
21580;DHT22;10951;59.656;9.666;2022-07-05T08:23:27;19.40;50.70
21580;DHT22;10951;59.656;9.666;2022-07-05T08:25:58;19.40;50.40
21580;DHT22;10951;59.656;9.666;2022-07-05T08:28:25;19.30;49.90
21580;DHT22;10951;59.656;9.666;2022-07-05T08:30:53;19.50;50.50
21580;DHT22;10951;59.656;9.666;2022-07-05T08:33:20;19.70;50.00
21580;DHT22;10951;59.656;9.666;2022-07-05T08:35:47;19.80;50.20
21580;DHT22;10951;59.656;9.666;2022-07-05T08:38:14;19.90;50.30
21580;DHT22;10951;59.656;9.666;2022-07-05T08:40:45;19.90;49.20
21580;DHT22;10951;59.656;9.666;2022-07-05T08:43:14;20.00;50.10
21580;DHT22;10951;59.656;9.666;2022-07-05T08:45:45;20.30;50.10
21580;DHT22;10951;59.656;9.666;2022-07-05T08:48:15;20.50;50.50
21580;DHT22;10951;59.656;9.666;2022-07-05T08:50:43;20.50;49.00
21580;DHT22;10951;59.656;9.666;2022-07-05T08:53:10;20.40;49.10
21580;DHT22;10951;59.656;9.666;2022-07-05T08:55:37;20.50;50.30
21580;DHT22;10951;59.656;9.666;2022-07-05T08:58:04;20.70;50.00
21580;DHT22;10951;59.656;9.666;2022-07-05T09:00:31;20.60;48.50
21580;DHT22;10951;59.656;9.666;2022-07-05T09:03:05;20.50;49.80
21580;DHT22;10951;59.656;9.666;2022-07-05T09:05:39;20.50;51.10
21580;DHT22;10951;59.656;9.666;2022-07-05T09:08:10;20.70;51.00
21580;DHT22;10951;59.656;9.666;2022-07-05T09:10:40;20.90;50.40
21580;DHT22;10951;59.656;9.666;2022-07-05T09:13:15;20.90;49.00
21580;DHT22;10951;59.656;9.666;2022-07-05T09:15:42;20.70;48.20
21580;DHT22;10951;59.656;9.666;2022-07-05T09:18:09;20.60;49.40
21580;DHT22;10951;59.656;9.666;2022-07-05T09:20:37;20.70;50.30
21580;DHT22;10951;59.656;9.666;2022-07-05T09:23:04;20.90;49.80
21580;DHT22;10951;59.656;9.666;2022-07-05T09:25:31;21.20;49.80
21580;DHT22;10951;59.656;9.666;2022-07-05T09:28:04;21.10;49.00
21580;DHT22;10951;59.656;9.666;2022-07-05T09:30:39;20.90;49.20
21580;DHT22;10951;59.656;9.666;2022-07-05T09:33:08;20.70;49.20
21580;DHT22;10951;59.656;9.666;2022-07-05T09:35:37;20.60;50.00
21580;DHT22;10951;59.656;9.666;2022-07-05T09:38:05;20.50;49.00
21580;DHT22;10951;59.656;9.666;2022-07-05T09:40:33;20.60;50.50
21580;DHT22;10951;59.656;9.666;2022-07-05T09:43:15;20.90;49.70
21580;DHT22;10951;59.656;9.666;2022-07-05T09:46:03;21.10;49.60
21580;DHT22;10951;59.656;9.666;2022-07-05T09:48:33;21.10;48.60
21580;DHT22;10951;59.656;9.666;2022-07-05T09:51:09;21.00;48.50
21580;DHT22;10951;59.656;9.666;2022-07-05T09:53:58;20.80;48.90
21580;DHT22;10951;59.656;9.666;2022-07-05T09:56:30;20.60;49.20
21580;DHT22;10951;59.656;9.666;2022-07-05T09:59:18;20.50;49.80
21580;DHT22;10951;59.656;9.666;2022-07-05T10:01:47;20.70;50.40
21580;DHT22;10951;59.656;9.666;2022-07-05T10:04:15;21.10;49.40
21580;DHT22;10951;59.656;9.666;2022-07-05T10:06:42;21.40;49.00
21580;DHT22;10951;59.656;9.666;2022-07-05T10:09:10;21.50;47.70
21580;DHT22;10951;59.656;9.666;2022-07-05T10:11:40;21.40;48.20
21580;DHT22;10951;59.656;9.666;2022-07-05T10:14:18;21.40;47.50
21580;DHT22;10951;59.656;9.666;2022-07-05T10:16:52;21.40;48.40
21580;DHT22;10951;59.656;9.666;2022-07-05T10:19:20;21.60;46.10
21580;DHT22;10951;59.656;9.666;2022-07-05T10:21:48;21.80;46.90
21580;DHT22;10951;59.656;9.666;2022-07-05T10:24:36;21.90;48.30
21580;DHT22;10951;59.656;9.666;2022-07-05T10:27:06;22.10;48.00
21580;DHT22;10951;59.656;9.666;2022-07-05T10:29:34;22.30;47.50
21580;DHT22;10951;59.656;9.666;2022-07-05T10:32:03;22.30;47.20
21580;DHT22;10951;59.656;9.666;2022-07-05T10:34:32;22.20;46.80
21580;DHT22;10951;59.656;9.666;2022-07-05T10:37:19;22.10;46.70
21580;DHT22;10951;59.656;9.666;2022-07-05T10:39:48;22.00;47.20
21580;DHT22;10951;59.656;9.666;2022-07-05T10:42:15;22.10;46.50
21580;DHT22;10951;59.656;9.666;2022-07-05T10:44:43;22.20;46.00
21580;DHT22;10951;59.656;9.666;2022-07-05T10:47:13;22.50;46.40
21580;DHT22;10951;59.656;9.666;2022-07-05T10:49:41;22.60;45.00
21580;DHT22;10951;59.656;9.666;2022-07-05T10:52:23;22.30;45.80
21580;DHT22;10951;59.656;9.666;2022-07-05T10:55:23;22.00;45.60
21580;DHT22;10951;59.656;9.666;2022-07-05T10:58:35;21.70;46.20
21580;DHT22;10951;59.656;9.666;2022-07-05T11:03:47;21.30;44.80
21580;DHT22;10951;59.656;9.666;2022-07-05T11:06:25;21.20;47.40
21580;DHT22;10951;59.656;9.666;2022-07-05T11:11:30;20.80;44.50
21580;DHT22;10951;59.656;9.666;2022-07-05T11:14:02;20.80;45.40
21580;DHT22;10951;59.656;9.666;2022-07-05T11:16:33;21.00;44.90
21580;DHT22;10951;59.656;9.666;2022-07-05T11:19:10;21.40;45.70
21580;DHT22;10951;59.656;9.666;2022-07-05T11:21:40;22.00;46.10
21580;DHT22;10951;59.656;9.666;2022-07-05T11:24:27;22.30;44.80
21580;DHT22;10951;59.656;9.666;2022-07-05T11:26:59;22.20;44.40
21580;DHT22;10951;59.656;9.666;2022-07-05T11:29:49;21.90;44.10
21580;DHT22;10951;59.656;9.666;2022-07-05T11:32:22;21.50;45.90
21580;DHT22;10951;59.656;9.666;2022-07-05T11:34:51;21.20;45.90
21580;DHT22;10951;59.656;9.666;2022-07-05T11:37:20;21.10;46.20
21580;DHT22;10951;59.656;9.666;2022-07-05T11:42:50;21.20;46.90
21580;DHT22;10951;59.656;9.666;2022-07-05T11:45:17;21.30;46.20
21580;DHT22;10951;59.656;9.666;2022-07-05T11:47:44;21.30;46.10
21580;DHT22;10951;59.656;9.666;2022-07-05T11:50:12;21.40;46.10
21580;DHT22;10951;59.656;9.666;2022-07-05T11:52:40;21.60;46.80
21580;DHT22;10951;59.656;9.666;2022-07-05T11:55:08;21.70;45.70
21580;DHT22;10951;59.656;9.666;2022-07-05T11:57:36;21.90;45.20
21580;DHT22;10951;59.656;9.666;2022-07-05T12:00:04;22.00;44.90
21580;DHT22;10951;59.656;9.666;2022-07-05T12:02:43;22.10;44.20
21580;DHT22;10951;59.656;9.666;2022-07-05T12:05:10;21.90;43.70
21580;DHT22;10951;59.656;9.666;2022-07-05T12:07:38;21.70;44.00
21580;DHT22;10951;59.656;9.666;2022-07-05T12:10:07;21.60;44.80
21580;DHT22;10951;59.656;9.666;2022-07-05T12:13:12;21.40;45.60
21580;DHT22;10951;59.656;9.666;2022-07-05T12:15:40;21.30;46.50
21580;DHT22;10951;59.656;9.666;2022-07-05T12:18:08;21.20;47.20
21580;DHT22;10951;59.656;9.666;2022-07-05T12:20:36;21.10;46.90
21580;DHT22;10951;59.656;9.666;2022-07-05T12:23:04;21.10;48.00
21580;DHT22;10951;59.656;9.666;2022-07-05T12:25:31;21.00;47.30
21580;DHT22;10951;59.656;9.666;2022-07-05T12:28:01;21.00;47.60
21580;DHT22;10951;59.656;9.666;2022-07-05T12:30:31;20.90;47.50
21580;DHT22;10951;59.656;9.666;2022-07-05T12:35:47;20.60;46.90
21580;DHT22;10951;59.656;9.666;2022-07-05T12:38:16;20.60;46.50
21580;DHT22;10951;59.656;9.666;2022-07-05T12:40:45;20.60;46.50
21580;DHT22;10951;59.656;9.666;2022-07-05T12:43:14;20.40;46.60
21580;DHT22;10951;59.656;9.666;2022-07-05T12:45:44;20.40;47.50
21580;DHT22;10951;59.656;9.666;2022-07-05T12:48:11;20.40;47.40
21580;DHT22;10951;59.656;9.666;2022-07-05T12:50:51;20.30;47.10
21580;DHT22;10951;59.656;9.666;2022-07-05T12:53:49;20.30;47.90
21580;DHT22;10951;59.656;9.666;2022-07-05T12:56:35;20.30;48.60
21580;DHT22;10951;59.656;9.666;2022-07-05T12:59:57;20.30;48.70
21580;DHT22;10951;59.656;9.666;2022-07-05T13:02:41;20.40;48.30
21580;DHT22;10951;59.656;9.666;2022-07-05T13:05:20;20.50;48.00
21580;DHT22;10951;59.656;9.666;2022-07-05T13:07:49;20.50;47.80
21580;DHT22;10951;59.656;9.666;2022-07-05T13:10:26;20.50;48.10
21580;DHT22;10951;59.656;9.666;2022-07-05T13:13:06;20.50;47.90
21580;DHT22;10951;59.656;9.666;2022-07-05T13:15:32;20.60;48.90
21580;DHT22;10951;59.656;9.666;2022-07-05T13:18:00;20.60;48.30
21580;DHT22;10951;59.656;9.666;2022-07-05T13:20:29;20.60;48.60
21580;DHT22;10951;59.656;9.666;2022-07-05T13:22:56;20.60;49.10
21580;DHT22;10951;59.656;9.666;2022-07-05T13:25:23;20.50;49.10
21580;DHT22;10951;59.656;9.666;2022-07-05T13:27:49;20.50;48.70
21580;DHT22;10951;59.656;9.666;2022-07-05T13:30:19;20.50;48.60
21580;DHT22;10951;59.656;9.666;2022-07-05T13:32:46;20.40;48.70
21580;DHT22;10951;59.656;9.666;2022-07-05T13:35:13;20.30;48.60
21580;DHT22;10951;59.656;9.666;2022-07-05T13:37:40;20.20;48.80
21580;DHT22;10951;59.656;9.666;2022-07-05T13:40:08;20.20;49.10
21580;DHT22;10951;59.656;9.666;2022-07-05T13:42:35;20.30;49.90
21580;DHT22;10951;59.656;9.666;2022-07-05T13:45:02;20.40;49.40
21580;DHT22;10951;59.656;9.666;2022-07-05T13:47:29;20.50;49.30
21580;DHT22;10951;59.656;9.666;2022-07-05T13:49:55;20.70;48.00
21580;DHT22;10951;59.656;9.666;2022-07-05T13:52:42;20.80;48.40
21580;DHT22;10951;59.656;9.666;2022-07-05T13:55:09;20.90;48.70
21580;DHT22;10951;59.656;9.666;2022-07-05T13:57:36;20.90;47.40
21580;DHT22;10951;59.656;9.666;2022-07-05T14:00:03;20.90;47.70
21580;DHT22;10951;59.656;9.666;2022-07-05T14:02:30;20.90;48.50
21580;DHT22;10951;59.656;9.666;2022-07-05T14:04:57;20.90;48.60
21580;DHT22;10951;59.656;9.666;2022-07-05T14:07:24;21.00;48.90
21580;DHT22;10951;59.656;9.666;2022-07-05T14:09:51;21.20;48.80
21580;DHT22;10951;59.656;9.666;2022-07-05T14:12:18;21.50;48.00
21580;DHT22;10951;59.656;9.666;2022-07-05T14:14:45;21.80;47.10
21580;DHT22;10951;59.656;9.666;2022-07-05T14:17:12;22.00;46.20
21580;DHT22;10951;59.656;9.666;2022-07-05T14:19:39;22.00;46.10
21580;DHT22;10951;59.656;9.666;2022-07-05T14:22:06;21.90;46.00
21580;DHT22;10951;59.656;9.666;2022-07-05T14:24:33;21.70;46.80
21580;DHT22;10951;59.656;9.666;2022-07-05T14:27:00;21.60;47.10
21580;DHT22;10951;59.656;9.666;2022-07-05T14:29:27;21.50;48.20
21580;DHT22;10951;59.656;9.666;2022-07-05T14:31:54;21.40;47.80
21580;DHT22;10951;59.656;9.666;2022-07-05T14:34:21;21.40;48.70
21580;DHT22;10951;59.656;9.666;2022-07-05T14:36:48;21.40;48.10
21580;DHT22;10951;59.656;9.666;2022-07-05T14:39:15;21.30;48.30
21580;DHT22;10951;59.656;9.666;2022-07-05T14:41:45;21.30;48.10
21580;DHT22;10951;59.656;9.666;2022-07-05T14:44:12;21.20;47.30
21580;DHT22;10951;59.656;9.666;2022-07-05T14:46:39;21.20;47.60
21580;DHT22;10951;59.656;9.666;2022-07-05T14:49:07;21.20;47.30
21580;DHT22;10951;59.656;9.666;2022-07-05T14:51:34;21.20;47.40
21580;DHT22;10951;59.656;9.666;2022-07-05T14:54:01;21.10;48.50
21580;DHT22;10951;59.656;9.666;2022-07-05T14:56:27;21.20;48.30
21580;DHT22;10951;59.656;9.666;2022-07-05T14:58:55;21.20;47.90
21580;DHT22;10951;59.656;9.666;2022-07-05T15:01:22;21.20;47.30
21580;DHT22;10951;59.656;9.666;2022-07-05T15:03:49;21.20;48.10
21580;DHT22;10951;59.656;9.666;2022-07-05T15:06:16;21.30;47.50
21580;DHT22;10951;59.656;9.666;2022-07-05T15:08:43;21.50;47.60
21580;DHT22;10951;59.656;9.666;2022-07-05T15:11:10;21.70;48.60
21580;DHT22;10951;59.656;9.666;2022-07-05T15:13:37;21.80;46.80
21580;DHT22;10951;59.656;9.666;2022-07-05T15:16:04;21.90;46.50
21580;DHT22;10951;59.656;9.666;2022-07-05T15:18:32;21.90;47.40
21580;DHT22;10951;59.656;9.666;2022-07-05T15:20:59;22.00;46.80
21580;DHT22;10951;59.656;9.666;2022-07-05T15:23:26;22.30;45.70
21580;DHT22;10951;59.656;9.666;2022-07-05T15:25:57;22.60;44.30
21580;DHT22;10951;59.656;9.666;2022-07-05T15:28:27;22.80;44.60
21580;DHT22;10951;59.656;9.666;2022-07-05T15:30:54;22.80;43.30
21580;DHT22;10951;59.656;9.666;2022-07-05T15:33:22;22.60;43.50
21580;DHT22;10951;59.656;9.666;2022-07-05T15:35:58;22.40;44.10
21580;DHT22;10951;59.656;9.666;2022-07-05T15:38:26;22.10;44.60
21580;DHT22;10951;59.656;9.666;2022-07-05T15:40:53;21.90;44.80
21580;DHT22;10951;59.656;9.666;2022-07-05T15:43:22;21.80;44.90
21580;DHT22;10951;59.656;9.666;2022-07-05T15:45:52;21.70;45.20
21580;DHT22;10951;59.656;9.666;2022-07-05T15:48:20;21.60;45.80
21580;DHT22;10951;59.656;9.666;2022-07-05T15:50:47;21.60;45.90
21580;DHT22;10951;59.656;9.666;2022-07-05T15:53:14;21.50;46.60
21580;DHT22;10951;59.656;9.666;2022-07-05T15:55:42;21.50;47.10
21580;DHT22;10951;59.656;9.666;2022-07-05T15:58:09;21.50;47.30